Time;durP1;ratioP1;P1;durP2;ratioP2;P2;SDS_P1;SDS_P2;PMS_P1;PMS_P2;Temp;Humidity;BMP_temperature;BMP_pressure;BME280_temperature;BME280_humidity;BME280_pressure;Samples;Min_cycle;Max_cycle;Signal;HPM_P1;HPM_P2
2022/04/16 00:01:19;;;;;;;2.35;1.90;;;9.60;1.00;;;;;;7366407;19;20031;-63
2022/04/16 00:03:49;;;;;;;3.58;1.80;;;9.50;1.00;;;;;;7365958;19;20111;-63
2022/04/16 00:06:19;;;;;;;2.58;1.70;;;9.50;1.00;;;;;;7383517;19;20393;-62
2022/04/16 00:08:48;;;;;;;2.53;1.63;;;9.40;1.00;;;;;;7364213;19;20605;-62
2022/04/16 00:11:21;;;;;;;1.98;1.70;;;9.40;1.00;;;;;;7366476;19;20458;-64
2022/04/16 00:13:51;;;;;;;2.25;1.90;;;9.30;1.00;;;;;;7366124;19;20024;-63
2022/04/16 00:16:22;;;;;;;2.13;1.58;;;9.30;1.00;;;;;;7361680;19;20052;-64
2022/04/16 00:18:52;;;;;;;3.47;1.98;;;9.30;1.00;;;;;;7363329;19;20031;-63
2022/04/16 00:21:22;;;;;;;1.90;1.70;;;9.20;1.00;;;;;;7387883;19;20010;-62
2022/04/16 00:23:53;;;;;;;1.83;1.45;;;9.20;1.00;;;;;;7365868;19;20018;-62
2022/04/16 00:26:26;;;;;;;2.00;1.75;;;9.20;1.00;;;;;;7360370;19;20058;-62
2022/04/16 00:28:59;;;;;;;3.13;1.70;;;9.20;1.00;;;;;;7363999;19;20014;-62
2022/04/16 00:31:29;;;;;;;3.03;1.83;;;9.10;1.00;;;;;;7365920;19;20027;-62
2022/04/16 00:34:01;;;;;;;1.83;1.60;;;9.10;1.00;;;;;;7364322;19;20013;-62
2022/04/16 00:36:31;;;;;;;2.13;1.75;;;9.10;1.00;;;;;;7361982;19;20101;-63
2022/04/16 00:39:01;;;;;;;2.75;1.55;;;9.00;1.00;;;;;;7384869;19;20015;-62
2022/04/16 00:41:33;;;;;;;2.03;1.75;;;9.00;1.00;;;;;;7364768;19;20006;-63
2022/04/16 00:44:03;;;;;;;3.35;1.90;;;8.90;1.00;;;;;;7365794;19;20094;-63
2022/04/16 00:46:34;;;;;;;3.10;1.83;;;8.90;1.00;;;;;;7360438;19;20010;-62
2022/04/16 00:49:03;;;;;;;1.60;1.50;;;8.90;1.00;;;;;;7362215;19;20033;-62
2022/04/16 00:51:34;;;;;;;1.48;1.35;;;8.80;1.00;;;;;;7363983;19;20091;-63
2022/04/16 00:54:05;;;;;;;2.20;1.55;;;8.80;1.00;;;;;;7385916;19;20018;-62
2022/04/16 00:56:38;;;;;;;3.72;2.17;;;8.80;1.00;;;;;;7361113;19;20367;-62
2022/04/16 00:59:08;;;;;;;2.53;1.90;;;8.80;1.00;;;;;;7362368;19;20018;-62
2022/04/16 01:01:38;;;;;;;2.67;1.80;;;8.80;1.00;;;;;;7365865;19;20033;-62
2022/04/16 01:04:08;;;;;;;2.67;1.95;;;8.80;1.00;;;;;;7364840;19;20082;-62
2022/04/16 01:06:39;;;;;;;2.40;1.85;;;8.70;1.00;;;;;;7361128;19;20023;-62
2022/04/16 01:09:09;;;;;;;2.50;1.80;;;8.70;1.00;;;;;;7384598;19;20078;-62
2022/04/16 01:11:43;;;;;;;2.40;1.67;;;8.60;1.00;;;;;;7363957;19;20380;-62
2022/04/16 01:14:17;;;;;;;;;;;8.60;1.00;;;;;;7364392;19;20085;-62
2022/04/16 01:16:47;;;;;;;2.17;1.60;;;8.60;1.00;;;;;;7360700;19;19914;-62
2022/04/16 01:19:19;;;;;;;2.47;1.95;;;8.60;1.00;;;;;;7362226;19;20010;-62
2022/04/16 01:21:50;;;;;;;2.85;2.08;;;8.60;1.00;;;;;;7355336;19;20036;-62
2022/04/16 01:24:22;;;;;;;2.15;1.80;;;8.60;1.00;;;;;;7385031;19;20019;-62
2022/04/16 01:26:52;;;;;;;2.05;1.77;;;8.50;1.00;;;;;;7364169;19;20015;-62
2022/04/16 01:29:22;;;;;;;2.45;2.08;;;8.50;1.00;;;;;;7363940;19;20006;-62
2022/04/16 01:31:52;;;;;;;3.45;2.10;;;8.40;1.00;;;;;;7359855;19;20012;-62
2022/04/16 01:34:25;;;;;;;2.45;1.67;;;8.30;1.00;;;;;;7362019;19;20031;-62
2022/04/16 01:37:02;;;;;;;2.25;1.73;;;8.30;1.00;;;;;;7364625;19;20082;-62
2022/04/16 01:39:35;;;;;;;2.55;1.90;;;8.30;1.00;;;;;;7363400;19;20664;-63
2022/04/16 01:42:05;;;;;;;2.47;1.95;;;8.20;1.00;;;;;;7380736;19;20546;-62
2022/04/16 01:44:35;;;;;;;2.35;1.70;;;8.20;1.00;;;;;;7362532;19;20489;-62
2022/04/16 01:47:06;;;;;;;2.75;2.00;;;8.20;1.00;;;;;;7362434;19;20020;-63
2022/04/16 01:49:36;;;;;;;2.22;1.77;;;8.20;1.00;;;;;;7362124;19;20010;-62
2022/04/16 01:52:07;;;;;;;4.05;2.10;;;8.20;1.00;;;;;;7358304;19;20040;-62
2022/04/16 01:54:40;;;;;;;4.10;1.90;;;8.10;1.00;;;;;;7362517;19;20110;-63
2022/04/16 01:57:10;;;;;;;2.65;1.67;;;8.20;1.00;;;;;;7385867;19;20096;-62
2022/04/16 01:59:40;;;;;;;3.45;1.75;;;8.10;1.00;;;;;;7363192;19;20038;-62
2022/04/16 02:02:10;;;;;;;2.75;1.90;;;8.00;1.00;;;;;;7358056;19;20076;-62
2022/04/16 02:04:40;;;;;;;2.30;1.80;;;8.10;1.00;;;;;;7362006;19;20669;-63
2022/04/16 02:07:10;;;;;;;2.83;2.20;;;8.00;1.00;;;;;;7363496;19;20039;-63
2022/04/16 02:09:43;;;;;;;3.17;1.90;;;8.00;1.00;;;;;;7362892;19;20014;-63
2022/04/16 02:12:15;;;;;;;2.70;2.33;;;8.00;1.00;;;;;;7378772;19;20094;-62
2022/04/16 02:14:44;;;;;;;3.60;1.98;;;8.00;1.00;;;;;;7361029;19;20006;-62
2022/04/16 02:17:14;;;;;;;2.30;1.92;;;8.00;1.00;;;;;;7363093;19;20027;-62
2022/04/16 02:19:44;;;;;;;2.60;2.30;;;7.90;1.00;;;;;;7362891;19;20018;-62
2022/04/16 02:22:14;;;;;;;2.75;2.20;;;7.90;1.00;;;;;;7356864;19;20523;-63
2022/04/16 02:24:47;;;;;;;2.55;2.28;;;7.90;1.00;;;;;;7360991;19;20081;-63
2022/04/16 02:27:17;;;;;;;3.35;2.42;;;7.80;1.00;;;;;;7385004;19;20016;-62
2022/04/16 02:29:47;;;;;;;3.58;2.08;;;7.80;1.00;;;;;;7362725;19;20817;-62
2022/04/16 02:32:17;;;;;;;2.17;1.90;;;7.80;1.00;;;;;;7358278;19;20011;-63
2022/04/16 02:34:47;;;;;;;3.95;2.10;;;7.70;1.00;;;;;;7361608;19;20017;-62
2022/04/16 02:37:16;;;;;;;3.30;2.20;;;7.70;1.00;;;;;;7362372;19;20052;-62
2022/04/16 02:39:49;;;;;;;2.72;2.20;;;7.70;1.00;;;;;;7362635;19;20015;-62
2022/04/16 02:42:19;;;;;;;2.80;2.20;;;7.70;1.00;;;;;;7378843;19;20629;-62
2022/04/16 02:47:32;;;;;;;3.72;2.20;;;7.70;1.00;;;;;;7360600;19;20014;-62
2022/04/16 02:50:02;;;;;;;2.88;2.10;;;7.60;1.00;;;;;;7362217;19;20010;-64
2022/04/16 02:52:33;;;;;;;2.78;2.38;;;7.60;1.00;;;;;;7357828;19;20096;-63
2022/04/16 02:55:06;;;;;;;3.13;2.50;;;7.60;1.00;;;;;;7360814;19;20391;-63
2022/04/16 02:57:36;;;;;;;3.10;2.30;;;7.50;1.00;;;;;;7362615;19;20189;-63
2022/04/16 03:00:07;;;;;;;2.25;2.00;;;7.50;1.30;;;;;;7383513;19;20017;-63
2022/04/16 03:02:37;;;;;;;2.97;2.50;;;7.40;1.90;;;;;;7357031;19;20014;-63
2022/04/16 03:05:09;;;;;;;3.25;2.38;;;7.40;2.20;;;;;;7359793;19;20010;-62
2022/04/16 03:07:40;;;;;;;3.50;2.25;;;7.30;2.40;;;;;;7362213;19;20094;-61
2022/04/16 03:10:13;;;;;;;3.35;2.58;;;7.30;3.10;;;;;;7362216;19;20039;-62
2022/04/16 03:12:47;;;;;;;3.10;2.40;;;7.30;3.10;;;;;;7357996;19;20090;-61
2022/04/16 03:18:01;;;;;;;2.90;2.40;;;7.20;3.00;;;;;;7369540;19;20086;-62
2022/04/16 03:20:31;;;;;;;2.42;2.20;;;7.20;3.00;;;;;;7364672;19;20006;-61
2022/04/16 03:23:02;;;;;;;2.58;2.38;;;7.20;3.00;;;;;;7369156;19;20378;-63
2022/04/16 03:25:35;;;;;;;3.42;2.53;;;7.30;3.10;;;;;;7366868;19;20014;-63
2022/04/16 03:28:05;;;;;;;3.80;2.42;;;7.30;3.10;;;;;;7367203;19;20015;-63
2022/04/16 03:30:35;;;;;;;3.75;2.30;;;7.30;2.90;;;;;;7364333;19;20344;-62
2022/04/16 03:33:08;;;;;;;3.35;2.30;;;7.30;2.80;;;;;;7387941;19;20024;-62
2022/04/16 03:35:38;;;;;;;2.35;1.92;;;7.30;3.10;;;;;;7365944;19;20007;-62
2022/04/16 03:38:10;;;;;;;5.82;2.35;;;7.30;3.10;;;;;;7368195;19;20565;-62
2022/04/16 03:40:44;;;;;;;3.15;2.30;;;7.30;3.10;;;;;;7360829;19;20035;-62
2022/04/16 03:43:14;;;;;;;4.88;2.78;;;7.30;3.00;;;;;;7368070;19;20014;-62
2022/04/16 03:45:44;;;;;;;2.88;1.90;;;7.30;3.10;;;;;;7365747;19;20010;-63
2022/04/16 03:48:15;;;;;;;2.90;2.47;;;7.20;3.00;;;;;;7388820;19;20015;-62
2022/04/16 03:50:44;;;;;;;2.47;2.15;;;7.20;3.10;;;;;;7362330;19;20021;-62
2022/04/16 03:53:14;;;;;;;2.83;2.30;;;7.20;3.10;;;;;;7367232;19;20011;-62
2022/04/16 04:01:12;;;;;;;2.83;2.50;;;7.20;3.80;;;;;;7361052;19;20006;-62
2022/04/16 04:03:43;;;;;;;3.17;2.60;;;7.20;3.60;;;;;;7366817;19;20490;-62
2022/04/16 04:06:12;;;;;;;3.30;2.60;;;7.10;4.10;;;;;;7388786;19;20014;-63
2022/04/16 04:08:42;;;;;;;4.30;2.20;;;7.20;4.10;;;;;;7364930;19;20018;-64
2022/04/16 04:11:15;;;;;;;2.47;2.20;;;7.10;4.20;;;;;;7361565;19;20010;-62
2022/04/16 04:13:45;;;;;;;3.08;2.25;;;7.20;3.40;;;;;;7365710;19;20017;-62
2022/04/16 04:16:15;;;;;;;2.97;2.60;;;7.20;3.10;;;;;;7367614;19;20093;-62
2022/04/16 04:18:44;;;;;;;2.90;2.40;;;7.20;3.00;;;;;;7366276;19;20018;-62
2022/04/16 04:21:14;;;;;;;2.97;2.50;;;7.20;3.30;;;;;;7382575;19;20441;-62
2022/04/16 04:23:44;;;;;;;3.05;2.38;;;7.20;3.70;;;;;;7366028;19;20018;-62
2022/04/16 04:26:17;;;;;;;3.50;2.45;;;7.20;3.20;;;;;;7364000;19;20022;-62
2022/04/16 04:28:47;;;;;;;3.08;2.38;;;7.30;3.10;;;;;;7364972;19;20014;-62
2022/04/16 04:31:16;;;;;;;2.90;2.28;;;7.30;3.20;;;;;;7361042;19;20006;-62
2022/04/16 04:33:46;;;;;;;4.55;2.83;;;7.30;3.10;;;;;;7366026;19;20370;-62
2022/04/16 04:36:16;;;;;;;3.13;2.53;;;7.30;3.10;;;;;;7387960;19;20014;-62
2022/04/16 04:38:46;;;;;;;3.45;2.72;;;7.30;3.10;;;;;;7363264;19;20021;-62
2022/04/16 04:41:18;;;;;;;3.22;2.42;;;7.40;3.10;;;;;;7360092;19;20006;-61
2022/04/16 04:43:48;;;;;;;3.33;2.25;;;7.40;2.80;;;;;;7365073;19;20021;-63
2022/04/16 04:46:18;;;;;;;3.05;2.50;;;7.30;3.10;;;;;;7366682;19;20470;-62
2022/04/16 04:48:48;;;;;;;2.58;2.33;;;7.40;3.20;;;;;;7365190;19;20018;-63
2022/04/16 04:51:18;;;;;;;4.20;3.03;;;7.40;3.20;;;;;;7381679;19;20011;-63
2022/04/16 04:53:48;;;;;;;3.30;2.47;;;7.40;3.20;;;;;;7364701;19;20014;-63
2022/04/16 04:56:20;;;;;;;2.67;2.47;;;7.50;3.20;;;;;;7365759;19;20113;-63
2022/04/16 04:58:50;;;;;;;3.90;2.78;;;7.50;3.20;;;;;;7365459;19;20062;-63
2022/04/16 05:01:20;;;;;;;3.45;2.78;;;7.50;3.20;;;;;;7360490;19;20021;-63
2022/04/16 05:03:50;;;;;;;4.38;2.65;;;7.50;3.30;;;;;;7364740;19;20033;-63
2022/04/16 05:06:20;;;;;;;3.97;2.58;;;7.50;3.20;;;;;;7387194;19;20576;-62
2022/04/16 05:08:51;;;;;;;4.20;2.92;;;7.50;3.20;;;;;;7363767;19;20010;-63
2022/04/16 05:11:23;;;;;;;3.47;2.95;;;7.70;2.80;;;;;;7358901;19;20761;-62
2022/04/16 05:13:53;;;;;;;3.30;2.40;;;7.70;2.30;;;;;;7364319;19;20017;-62
2022/04/16 05:16:23;;;;;;;3.75;2.65;;;7.70;2.80;;;;;;7365441;19;20106;-62
2022/04/16 05:18:53;;;;;;;3.78;2.88;;;7.70;1.70;;;;;;7365270;19;20017;-62
2022/04/16 05:21:23;;;;;;;4.32;2.40;;;7.70;1.50;;;;;;7380275;19;20018;-62
2022/04/16 05:23:52;;;;;;;3.47;2.58;;;7.70;2.70;;;;;;7364198;19;20022;-62
2022/04/16 05:26:25;;;;;;;3.13;2.67;;;7.70;2.10;;;;;;7364691;19;20090;-62
2022/04/16 05:28:56;;;;;;;3.90;3.05;;;7.90;2.60;;;;;;7363544;19;20515;-62
2022/04/16 05:31:27;;;;;;;4.10;3.30;;;7.90;2.60;;;;;;7359260;19;20056;-62
2022/04/16 05:36:40;;;;;;;4.38;3.10;;;7.90;2.60;;;;;;7364103;19;20089;-62
2022/04/16 05:39:09;;;;;;;4.35;3.17;;;7.90;2.60;;;;;;7385594;19;20024;-63
2022/04/16 05:41:42;;;;;;;4.80;3.17;;;7.90;1.90;;;;;;7356979;19;20520;-63
2022/04/16 05:44:12;;;;;;;4.57;3.17;;;8.00;1.70;;;;;;7363203;19;20010;-62
2022/04/16 05:46:42;;;;;;;4.30;3.40;;;8.10;1.00;;;;;;7365282;19;20014;-62
2022/04/16 05:49:12;;;;;;;3.83;2.78;;;8.00;1.10;;;;;;7364313;19;20007;-62
2022/04/16 05:51:42;;;;;;;4.72;3.40;;;8.20;1.20;;;;;;7358250;19;20021;-63
2022/04/16 05:54:12;;;;;;;4.40;3.42;;;8.20;1.10;;;;;;7384946;19;20467;-62
2022/04/16 05:56:44;;;;;;;3.80;3.20;;;8.20;1.00;;;;;;7363018;19;20523;-62
2022/04/16 05:59:14;;;;;;;4.68;3.65;;;8.20;1.00;;;;;;7363226;19;20019;-61
2022/04/16 06:01:45;;;;;;;3.30;2.95;;;8.30;1.00;;;;;;7357493;19;20101;-61
2022/04/16 06:04:15;;;;;;;3.97;3.05;;;8.20;1.00;;;;;;7361078;19;20063;-63
2022/04/16 06:06:46;;;;;;;4.05;2.95;;;8.10;1.00;;;;;;7362916;19;20010;-62
2022/04/16 06:09:16;;;;;;;3.83;3.25;;;8.30;1.00;;;;;;7383288;19;20018;-62
2022/04/16 06:11:49;;;;;;;4.43;3.30;;;8.30;1.50;;;;;;7356284;19;20016;-63
2022/04/16 06:14:19;;;;;;;3.70;3.00;;;8.20;1.00;;;;;;7360890;19;20021;-63
2022/04/16 06:16:48;;;;;;;3.85;3.30;;;8.40;1.00;;;;;;7363194;19;20101;-63
2022/04/16 06:19:21;;;;;;;4.35;3.30;;;8.30;1.60;;;;;;7361201;19;20106;-63
2022/04/16 06:21:51;;;;;;;9.90;3.13;;;8.30;2.50;;;;;;7356283;19;20090;-62
2022/04/16 06:24:20;;;;;;;5.85;3.67;;;8.40;2.20;;;;;;7383812;19;20017;-62
2022/04/16 06:26:53;;;;;;;4.18;3.33;;;8.40;1.90;;;;;;7362608;19;20010;-61
2022/04/16 06:29:23;;;;;;;4.65;3.60;;;8.50;1.40;;;;;;7361202;19;20116;-61
2022/04/16 06:31:53;;;;;;;4.15;3.60;;;8.50;1.20;;;;;;7356444;19;20122;-62
2022/04/16 06:34:23;;;;;;;5.45;3.75;;;8.50;1.90;;;;;;7357897;19;20748;-61
2022/04/16 06:36:53;;;;;;;5.10;3.67;;;8.30;2.00;;;;;;7362348;19;20577;-62
2022/04/16 06:39:23;;;;;;;5.13;3.78;;;8.40;2.20;;;;;;7383970;19;20473;-61
2022/04/16 06:41:56;;;;;;;4.30;3.38;;;8.50;1.80;;;;;;7355247;19;20021;-62
2022/04/16 06:44:25;;;;;;;4.90;3.42;;;8.60;1.60;;;;;;7361508;19;20011;-62
2022/04/16 06:46:56;;;;;;;4.72;3.92;;;8.70;1.10;;;;;;7362264;19;20609;-62
2022/04/16 06:49:25;;;;;;;4.63;3.75;;;8.60;2.00;;;;;;7362803;19;20066;-62
2022/04/16 06:51:55;;;;;;;11.57;4.25;;;8.60;1.30;;;;;;7364113;19;20015;-62
2022/04/16 06:54:25;;;;;;;5.63;4.25;;;8.70;1.30;;;;;;7390102;19;20014;-62
2022/04/16 06:56:58;;;;;;;5.15;3.70;;;8.80;1.00;;;;;;7369789;19;20354;-62
2022/04/16 06:59:27;;;;;;;6.35;3.88;;;8.90;1.00;;;;;;7368373;19;20037;-62
2022/04/16 07:01:57;;;;;;;7.10;3.92;;;8.90;1.00;;;;;;7363590;19;21019;-62
2022/04/16 07:04:28;;;;;;;5.38;3.95;;;8.90;1.00;;;;;;7367456;19;20482;-62
2022/04/16 07:06:57;;;;;;;5.63;3.55;;;9.10;1.00;;;;;;7370128;19;20147;-62
2022/04/16 07:09:27;;;;;;;7.15;3.95;;;9.20;1.00;;;;;;7390199;19;21491;-62
2022/04/16 07:12:00;;;;;;;7.13;4.25;;;9.20;1.00;;;;;;7363306;19;20017;-62
2022/04/16 07:14:30;;;;;;;4.60;3.95;;;9.10;1.00;;;;;;7366254;19;20476;-63
2022/04/16 07:16:59;;;;;;;7.15;3.78;;;9.30;1.00;;;;;;7368371;19;20017;-62
2022/04/16 07:19:30;;;;;;;5.95;4.25;;;9.30;1.00;;;;;;7368042;19;20019;-62
2022/04/16 07:22:01;;;;;;;4.95;3.60;;;9.60;1.00;;;;;;7362656;19;20010;-62
2022/04/16 07:24:31;;;;;;;5.00;3.60;;;9.70;1.00;;;;;;7366927;19;20018;-63
2022/04/16 07:27:03;;;;;;;4.80;3.72;;;9.80;1.00;;;;;;7386907;19;20077;-63
2022/04/16 07:29:33;;;;;;;5.40;3.80;;;9.70;1.00;;;;;;7366813;19;20452;-63
2022/04/16 07:32:03;;;;;;;5.63;3.70;;;9.80;1.00;;;;;;7362732;19;20020;-63
2022/04/16 07:34:33;;;;;;;5.32;3.97;;;9.80;1.00;;;;;;7365680;19;20010;-62
2022/04/16 07:37:03;;;;;;;7.60;3.75;;;9.70;1.00;;;;;;7368328;19;20097;-63
2022/04/16 07:39:33;;;;;;;4.78;3.83;;;9.70;1.00;;;;;;7367736;19;20039;-63
2022/04/16 07:42:05;;;;;;;5.32;3.70;;;9.70;1.00;;;;;;7382839;19;20014;-62
2022/04/16 07:44:35;;;;;;;5.07;3.92;;;9.70;1.00;;;;;;7366102;19;20006;-62
2022/04/16 07:47:06;;;;;;;6.43;3.97;;;9.80;1.00;;;;;;7367465;19;20014;-61
2022/04/16 07:49:36;;;;;;;6.18;4.18;;;10.00;1.00;;;;;;7367245;19;20010;-62
2022/04/16 07:52:07;;;;;;;6.00;4.43;;;10.10;1.00;;;;;;7361079;19;20020;-62
2022/04/16 07:54:37;;;;;;;6.30;4.30;;;10.20;1.00;;;;;;7366036;19;20022;-62
2022/04/16 07:57:10;;;;;;;5.88;4.43;;;10.20;1.00;;;;;;7389014;19;20020;-63
2022/04/16 07:59:40;;;;;;;7.13;4.28;;;10.00;1.00;;;;;;7366960;19;20020;-63
2022/04/16 08:02:09;;;;;;;5.97;3.95;;;10.40;1.00;;;;;;7360069;19;20010;-63
2022/04/16 08:04:41;;;;;;;5.38;4.05;;;10.30;1.00;;;;;;7364648;19;20010;-62
2022/04/16 08:07:11;;;;;;;8.52;4.78;;;10.20;1.00;;;;;;7367226;19;20086;-62
2022/04/16 08:09:40;;;;;;;6.07;4.10;;;10.40;1.00;;;;;;7366276;19;20052;-62
2022/04/16 08:12:13;;;;;;;6.68;3.83;;;10.50;1.00;;;;;;7380015;19;20466;-62
2022/04/16 08:14:43;;;;;;;6.35;4.50;;;10.70;1.00;;;;;;7364865;19;20545;-62
2022/04/16 08:17:13;;;;;;;8.98;5.13;;;10.90;1.00;;;;;;7365229;19;20027;-62
2022/04/16 08:19:43;;;;;;;4.88;4.15;;;10.70;1.00;;;;;;7366037;19;20010;-63
2022/04/16 08:22:17;;;;;;;6.40;4.60;;;10.80;1.00;;;;;;7359229;19;20474;-63
2022/04/16 08:24:55;;;;;;;5.80;4.82;;;10.60;1.00;;;;;;7363854;19;20039;-63
2022/04/16 08:27:27;;;;;;;6.07;4.63;;;10.60;1.00;;;;;;7387551;19;20092;-63
2022/04/16 08:29:57;;;;;;;7.45;5.43;;;10.60;1.00;;;;;;7365676;19;20038;-62
2022/04/16 08:32:27;;;;;;;7.57;4.63;;;10.60;1.00;;;;;;7359856;19;20090;-63
2022/04/16 08:34:57;;;;;;;7.55;4.80;;;10.60;1.00;;;;;;7364931;19;20340;-63
2022/04/16 08:37:27;;;;;;;8.48;5.15;;;10.80;1.00;;;;;;7365690;19;20011;-63
2022/04/16 08:39:56;;;;;;;9.02;4.90;;;10.80;1.00;;;;;;7365190;19;20089;-62
2022/04/16 08:42:29;;;;;;;6.45;5.00;;;10.90;1.00;;;;;;7381266;19;20026;-63
2022/04/16 08:44:59;;;;;;;6.10;4.72;;;11.00;1.00;;;;;;7363998;19;20007;-63
2022/04/16 08:47:30;;;;;;;8.40;5.63;;;11.00;1.00;;;;;;7364512;19;20128;-61
2022/04/16 08:50:01;;;;;;;7.22;5.00;;;10.90;1.00;;;;;;7364842;19;20014;-63
2022/04/16 08:52:33;;;;;;;7.03;5.40;;;10.90;1.00;;;;;;7357730;19;20074;-62
2022/04/16 08:55:04;;;;;;;9.38;5.72;;;10.90;1.00;;;;;;7363165;19;20078;-62
2022/04/16 08:57:37;;;;;;;8.18;6.07;;;11.00;1.00;;;;;;7365674;19;20488;-62
2022/04/16 09:00:09;;;;;;;9.60;7.05;;;11.10;1.00;;;;;;7385990;19;20017;-62
2022/04/16 09:02:39;;;;;;;9.40;6.72;;;10.90;1.00;;;;;;7357748;19;20007;-62
2022/04/16 09:05:11;;;;;;;10.07;7.15;;;11.10;1.00;;;;;;7362992;19;20029;-62
2022/04/16 09:07:47;;;;;;;9.23;6.63;;;11.00;1.00;;;;;;7364600;19;20089;-63
2022/04/16 09:10:17;;;;;;;9.93;7.25;;;11.10;1.00;;;;;;7363300;19;20123;-62
2022/04/16 09:12:52;;;;;;;11.05;7.10;;;11.30;1.00;;;;;;7359975;19;20113;-62
2022/04/16 09:15:25;;;;;;;9.55;6.95;;;11.20;1.00;;;;;;7383745;19;20018;-63
2022/04/16 09:17:59;;;;;;;9.60;6.65;;;11.30;1.00;;;;;;7362551;19;20010;-62
2022/04/16 09:20:33;;;;;;;9.82;7.05;;;11.30;1.00;;;;;;7360376;19;20390;-62
2022/04/16 09:23:04;;;;;;;8.77;6.45;;;11.50;1.00;;;;;;7360689;19;20011;-62
2022/04/16 09:25:34;;;;;;;10.00;6.80;;;11.60;1.00;;;;;;7363369;19;20018;-62
2022/04/16 09:28:11;;;;;;;10.25;7.25;;;11.60;1.00;;;;;;7363633;19;20090;-62
2022/04/16 09:30:51;;;;;;;9.05;6.53;;;11.60;1.00;;;;;;7361659;19;20014;-62
2022/04/16 09:33:21;;;;;;;10.00;7.25;;;11.40;1.00;;;;;;7382972;19;20044;-62
2022/04/16 09:35:55;;;;;;;10.75;6.78;;;11.40;1.00;;;;;;7361748;19;20025;-62
2022/04/16 09:38:27;;;;;;;10.32;7.22;;;11.50;1.00;;;;;;7362814;19;20117;-62
2022/04/16 09:40:57;;;;;;;10.02;7.10;;;11.20;1.00;;;;;;7361663;19;20010;-63
2022/04/16 09:43:36;;;;;;;12.60;7.60;;;11.50;1.00;;;;;;7360775;19;20017;-62
2022/04/16 09:46:14;;;;;;;11.70;7.72;;;11.40;1.00;;;;;;7363154;19;20057;-62
2022/04/16 09:48:46;;;;;;;11.35;7.55;;;11.60;1.00;;;;;;7362379;19;20032;-62
2022/04/16 09:51:18;;;;;;;10.77;7.35;;;11.70;1.00;;;;;;7379616;19;20345;-61
2022/04/16 09:53:49;;;;;;;10.43;7.53;;;11.90;1.00;;;;;;7362595;19;20011;-63
2022/04/16 09:56:20;;;;;;;8.90;6.13;;;11.90;1.00;;;;;;7363152;19;20030;-62
2022/04/16 09:58:54;;;;;;;9.40;6.38;;;12.00;1.00;;;;;;7362353;19;20023;-62
2022/04/16 10:01:26;;;;;;;9.60;6.85;;;11.90;1.00;;;;;;7358413;19;20010;-62
2022/04/16 10:03:56;;;;;;;9.65;6.75;;;11.80;1.00;;;;;;7362564;19;20010;-62
2022/04/16 10:06:27;;;;;;;9.25;6.93;;;12.10;1.00;;;;;;7385427;19;20470;-62
2022/04/16 10:08:57;;;;;;;8.23;5.63;;;12.30;1.00;;;;;;7361982;19;20036;-64
2022/04/16 10:14:28;;;;;;;8.35;5.43;;;12.10;1.00;;;;;;7357228;19;20006;-61
2022/04/16 10:17:09;;;;;;;8.98;6.05;;;12.20;1.00;;;;;;7361917;19;20470;-62
2022/04/16 10:19:42;;;;;;;7.28;5.70;;;12.40;1.00;;;;;;7362260;19;20010;-63
2022/04/16 10:22:13;;;;;;;7.80;5.43;;;12.40;1.00;;;;;;7357426;19;20022;-63
2022/04/16 10:24:50;;;;;;;8.27;5.47;;;12.10;1.00;;;;;;7363384;19;20468;-62
2022/04/16 10:27:25;;;;;;;7.10;5.43;;;12.30;1.00;;;;;;7391388;19;20010;-62
2022/04/16 10:30:01;;;;;;;9.65;5.82;;;12.60;1.00;;;;;;7369296;19;20017;-62
2022/04/16 10:32:41;;;;;;;8.52;6.13;;;12.60;1.00;;;;;;7360563;19;20014;-62
2022/04/16 10:35:16;;;;;;;8.77;6.03;;;12.70;1.00;;;;;;7367240;19;20582;-61
2022/04/16 10:37:47;;;;;;;7.65;5.82;;;13.00;1.00;;;;;;7369963;19;20089;-61
2022/04/16 10:40:20;;;;;;;6.88;4.72;;;13.60;1.00;;;;;;7367855;19;20038;-61
2022/04/16 10:42:51;;;;;;;5.47;3.63;;;13.30;1.00;;;;;;7365967;19;20004;-62
2022/04/16 10:45:26;;;;;;;6.40;4.70;;;13.00;1.00;;;;;;7388205;19;20485;-62
2022/04/16 10:47:57;;;;;;;7.25;4.70;;;12.60;1.00;;;;;;7369388;19;20069;-62
2022/04/16 10:50:29;;;;;;;6.15;4.70;;;12.60;1.00;;;;;;7366192;19;20097;-62
2022/04/16 10:53:01;;;;;;;6.93;5.47;;;12.70;1.00;;;;;;7364297;19;20057;-63
2022/04/16 10:55:36;;;;;;;6.93;5.13;;;13.20;1.00;;;;;;7367875;19;20838;-63
2022/04/16 10:58:08;;;;;;;;;;;13.40;1.00;;;;;;7368456;19;20014;-62
2022/04/16 11:00:45;;;;;;;5.07;3.35;;;13.30;1.00;;;;;;7366499;19;19922;-63
2022/04/16 11:03:17;;;;;;;5.00;3.55;;;13.30;1.00;;;;;;7388140;19;20018;-62
2022/04/16 11:05:48;;;;;;;6.32;4.13;;;13.00;1.00;;;;;;7364979;19;20014;-62
2022/04/16 11:08:25;;;;;;;6.53;3.40;;;13.30;1.00;;;;;;7368924;19;20014;-62
2022/04/16 11:11:02;;;;;;;3.90;2.95;;;13.10;1.00;;;;;;7363304;19;20021;-62
2022/04/16 11:13:37;;;;;;;5.28;2.97;;;13.20;1.00;;;;;;7363719;19;20017;-62
2022/04/16 11:16:10;;;;;;;6.20;3.53;;;13.30;1.00;;;;;;7368579;19;20549;-63
2022/04/16 11:18:41;;;;;;;4.95;3.15;;;13.40;1.00;;;;;;7368544;19;20018;-62
2022/04/16 11:21:12;;;;;;;3.38;2.53;;;13.60;1.00;;;;;;7386396;19;20081;-62
2022/04/16 11:23:44;;;;;;;4.18;2.30;;;13.30;1.00;;;;;;7365939;19;20074;-62
2022/04/16 11:34:28;;;;;;;4.00;2.80;;;13.30;1.00;;;;;;7362657;19;20416;-62
2022/04/16 11:37:18;;;;;;;3.72;2.92;;;13.50;1.00;;;;;;7367111;19;20011;-62
2022/04/16 11:39:48;;;;;;;3.78;2.92;;;13.80;1.00;;;;;;7366172;19;20018;-63
2022/04/16 11:42:18;;;;;;;3.63;2.67;;;14.70;1.00;;;;;;7383376;19;20025;-63
2022/04/16 11:44:50;;;;;;;4.25;2.95;;;14.40;1.00;;;;;;7362729;19;20014;-63
2022/04/16 11:47:24;;;;;;;3.42;2.65;;;14.00;1.00;;;;;;7366750;19;20078;-63
2022/04/16 11:49:56;;;;;;;4.30;3.40;;;14.10;1.00;;;;;;7367092;19;20018;-63
2022/04/16 11:52:27;;;;;;;4.47;2.85;;;14.20;1.00;;;;;;7359159;19;20015;-63
2022/04/16 11:55:04;;;;;;;3.50;2.90;;;14.20;1.00;;;;;;7364563;19;20081;-63
2022/04/16 11:57:34;;;;;;;4.35;2.90;;;14.80;1.00;;;;;;7367079;19;20823;-63
2022/04/16 12:00:07;;;;;;;3.58;2.78;;;14.30;1.00;;;;;;7388053;19;20014;-62
2022/04/16 12:02:42;;;;;;;3.75;2.65;;;14.10;1.00;;;;;;7360137;19;20103;-64
2022/04/16 12:05:13;;;;;;;5.00;2.97;;;13.90;1.00;;;;;;7364474;19;20002;-64
2022/04/16 12:07:45;;;;;;;4.05;2.88;;;13.90;1.00;;;;;;7363050;19;20019;-63
2022/04/16 12:10:16;;;;;;;5.18;2.47;;;14.00;1.00;;;;;;7364901;19;20100;-62
2022/04/16 12:12:48;;;;;;;4.75;3.17;;;14.60;1.00;;;;;;7360296;19;20113;-63
2022/04/16 12:15:25;;;;;;;5.85;2.97;;;14.30;1.00;;;;;;7383521;19;20015;-62
2022/04/16 12:17:59;;;;;;;4.40;3.00;;;14.30;1.00;;;;;;7364255;19;20036;-64
2022/04/16 12:20:30;;;;;;;4.75;2.83;;;14.10;1.00;;;;;;7362280;19;20014;-64
2022/04/16 12:23:02;;;;;;;3.80;2.40;;;13.80;1.00;;;;;;7360663;19;20124;-62
2022/04/16 12:25:32;;;;;;;4.55;3.20;;;14.30;1.00;;;;;;7362243;19;20016;-64
2022/04/16 12:28:03;;;;;;;5.95;3.00;;;14.50;1.00;;;;;;7364776;19;20022;-63
2022/04/16 12:30:37;;;;;;;3.25;2.58;;;14.30;1.00;;;;;;7361438;19;20049;-63
2022/04/16 12:33:11;;;;;;;4.25;2.83;;;14.40;1.00;;;;;;7382949;19;20632;-63
2022/04/16 12:35:44;;;;;;;4.28;3.10;;;14.20;1.00;;;;;;7361755;19;20015;-63
2022/04/16 12:38:15;;;;;;;4.75;3.17;;;13.80;1.00;;;;;;7363817;19;20018;-64
2022/04/16 12:40:45;;;;;;;4.03;3.35;;;14.10;1.00;;;;;;7361766;19;20020;-64
2022/04/16 12:43:16;;;;;;;5.97;4.20;;;14.10;1.00;;;;;;7354109;19;20031;-64
2022/04/16 12:45:46;;;;;;;4.68;3.15;;;13.70;1.00;;;;;;7356235;19;20093;-64
2022/04/16 12:48:18;;;;;;;5.03;2.95;;;14.20;1.00;;;;;;7384114;19;20101;-63
2022/04/16 12:50:48;;;;;;;4.47;3.15;;;14.50;1.00;;;;;;7353981;19;20521;-63
2022/04/16 12:53:18;;;;;;;3.88;3.15;;;14.40;1.00;;;;;;7354843;19;20006;-63
2022/04/16 12:55:48;;;;;;;6.28;3.10;;;14.30;1.00;;;;;;7359310;19;20018;-63
2022/04/16 12:58:18;;;;;;;6.03;3.50;;;14.20;1.00;;;;;;7363353;19;20011;-64
2022/04/16 13:00:48;;;;;;;5.75;3.75;;;13.90;1.00;;;;;;7361364;19;20018;-63
2022/04/16 13:03:21;;;;;;;4.22;3.33;;;13.90;1.00;;;;;;7380298;19;20462;-63
2022/04/16 13:05:51;;;;;;;5.75;3.42;;;14.40;1.00;;;;;;7359966;19;20039;-63
2022/04/16 13:08:21;;;;;;;5.40;3.58;;;14.40;1.00;;;;;;7362732;19;20032;-63
2022/04/16 13:10:51;;;;;;;4.32;3.20;;;13.90;1.00;;;;;;7360536;19;20835;-63
2022/04/16 13:13:21;;;;;;;4.47;3.53;;;13.90;1.00;;;;;;7358104;19;20065;-62
2022/04/16 13:15:51;;;;;;;4.78;3.28;;;13.90;1.00;;;;;;7360194;19;20029;-62
2022/04/16 13:18:24;;;;;;;5.55;3.35;;;14.30;1.00;;;;;;7386802;19;20010;-63
2022/04/16 13:20:53;;;;;;;6.45;3.53;;;14.20;1.00;;;;;;7361408;19;20034;-63
2022/04/16 13:23:23;;;;;;;4.45;2.97;;;14.10;1.00;;;;;;7359361;19;20039;-64
2022/04/16 13:25:53;;;;;;;3.42;2.47;;;14.30;1.00;;;;;;7363422;19;20014;-63
2022/04/16 13:28:23;;;;;;;5.53;2.90;;;14.20;1.00;;;;;;7362845;19;20119;-62
2022/04/16 13:30:53;;;;;;;4.45;3.10;;;14.30;1.00;;;;;;7361039;19;20538;-61
2022/04/16 13:33:27;;;;;;;4.88;3.22;;;14.40;1.00;;;;;;7380800;19;20866;-63
2022/04/16 13:35:59;;;;;;;4.45;3.33;;;14.70;1.00;;;;;;7362934;19;20443;-64
2022/04/16 13:38:29;;;;;;;4.43;2.92;;;14.40;1.00;;;;;;7363380;19;20010;-63
2022/04/16 13:43:43;;;;;;;9.98;3.40;;;14.30;1.00;;;;;;7359527;19;20486;-64
2022/04/16 13:46:19;;;;;;;4.85;3.15;;;14.20;1.00;;;;;;7363402;19;20055;-64
2022/04/16 13:48:52;;;;;;;4.45;2.90;;;14.30;1.00;;;;;;7363583;19;20110;-62
2022/04/16 13:51:28;;;;;;;4.30;3.03;;;14.30;1.00;;;;;;7382498;19;20023;-63